Oak Island, NC

6:14 AM EST on December 19, 2014 (GMT -0500)
Oak Island - Marsh Hen | Change Station
CLOSE
Current Station
Personal Weather Station
Location: Oak Island, NC
Elevation: 3 ft
Nearby Weather Stations

Elev 3 ft 33.91 °N, 78.14 °W | Updated 57 seconds ago

Partly Cloudy
Partly Cloudy
36.9 °F
Feels Like 37 °F
N
0.0
Wind Variable Wind from SSE
Gusts 0.0 mph

Today
High -- | Low -- °F
--% Chance of Precip.
Yesterday
High -- | Low -- °F
Precip. -- in
7:12 AM 5:06 PM
Waning Crescent, 8% visible
Pressure 30.11 in
Visibility 10.0 miles
Clouds Clear
Windchill 37 °F
Dew Point 36 °F
Humidity 95%
Rainfall 0.00 in
Snow Depth Not available.
UV 0 out of 12
Pollen 2.00 out of 12
Air Quality Not available.
Flu Activity Not available.
METAR KSUT 191055Z AUTO 00000KT 10SM CLR 03/02 A3011 RMK AO2 T00250015

More Conditions Fewer Conditions

Pressure 30.11 in
Visibility 10.0 miles
Clouds Clear
Windchill 37 °F
Dew Point 36 °F
Humidity 95%
Rainfall 0.00 in
Snow Depth Not available.
UV 0 out of 12
Pollen 2.00 out of 12
Air Quality Not available.
Flu Activity Not available.
METAR KSUT 191055Z AUTO 00000KT 10SM CLR 03/02 A3011 RMK AO2 T00250015

More Conditions Fewer Conditions

10-Day Weather Forecast

Almanac

Astronomy

Dec. 19, 2014 Rise Set
Actual Time
Civil Twilight
Nautical Twilight
Astronomical Twilight
Moon
Length of Visible Light
Length of Day
Tomorrow will be .
, % of the Moon is Illuminated

Today's Extremes

State Highs State Lows

Community

WunderPhotos

Upload Photos

1,778,965 photos uploaded!

WunderBlogs® & News

Nearby

Air Quality

  Air Quality AQ Index Pollutant
Not available.

Snow Depth

Station Depth Elevation

Earthquake Activity

City Distance Mag. Time & Date
Minimum magnitude displayed is 2.5.

Coastal Water Temperatures

Place Temperature

Nearby Weather Stations